Time;durP1;ratioP1;P1;durP2;ratioP2;P2;SDS_P1;SDS_P2;PMS_P1;PMS_P2;Temp;Humidity;BMP_temperature;BMP_pressure;BME280_temperature;BME280_humidity;BME280_pressure;Samples;Min_cycle;Max_cycle;Signal;HPM_P1;HPM_P2
2021/08/24 00:00:16;;;;;;;3.08;2.40;;;;;;;;;;5011745;28;20513;-87
2021/08/24 00:02:45;;;;;;;3.55;2.25;;;;;;;;;;5011857;28;20455;-86
2021/08/24 00:05:14;;;;;;;3.45;2.30;;;;;;;;;;5012038;28;20445;-85
2021/08/24 00:07:42;;;;;;;2.30;1.88;;;;;;;;;;5014375;28;20129;-87
2021/08/24 00:10:11;;;;;;;2.42;1.90;;;;;;;;;;5014587;28;20101;-87
2021/08/24 00:12:40;;;;;;;2.60;1.75;;;;;;;;;;5028172;28;20056;-87
2021/08/24 00:15:08;;;;;;;2.05;1.52;;;;;;;;;;5026258;28;20046;-87
2021/08/24 00:17:38;;;;;;;2.15;1.63;;;;;;;;;;5014188;28;20239;-87
2021/08/24 00:20:07;;;;;;;2.17;1.52;;;;;;;;;;5013559;28;20133;-86
2021/08/24 00:22:36;;;;;;;1.65;1.50;;;;;;;;;;5012302;28;20483;-87
2021/08/24 00:25:05;;;;;;;1.77;1.33;;;;;;;;;;5012007;28;20509;-86
2021/08/24 00:27:34;;;;;;;2.17;1.65;;;;;;;;;;5013103;28;20046;-86
2021/08/24 00:30:02;;;;;;;2.42;1.63;;;;;;;;;;5012611;28;20569;-86
2021/08/24 00:32:30;;;;;;;2.35;1.70;;;;;;;;;;5011940;28;20590;-86
2021/08/24 00:35:00;;;;;;;3.80;1.50;;;;;;;;;;5010974;28;20065;-86
2021/08/24 00:37:29;;;;;;;3.13;1.50;;;;;;;;;;5012532;28;20136;-86
2021/08/24 00:39:57;;;;;;;1.55;1.45;;;;;;;;;;5011520;28;20399;-87
2021/08/24 00:42:25;;;;;;;2.95;1.92;;;;;;;;;;5012421;28;20468;-87
2021/08/24 00:44:53;;;;;;;5.60;1.80;;;;;;;;;;5011947;28;20051;-86
2021/08/24 00:47:23;;;;;;;2.20;1.95;;;;;;;;;;5012640;28;20061;-86
2021/08/24 00:49:52;;;;;;;4.97;1.65;;;;;;;;;;5012033;28;20053;-87
2021/08/24 00:52:25;;;;;;;2.53;1.70;;;;;;;;;;5012534;28;20058;-86
2021/08/24 00:54:54;;;;;;;2.75;1.80;;;;;;;;;;5002999;28;20053;-87
2021/08/24 00:57:24;;;;;;;1.77;1.33;;;;;;;;;;5006035;28;20037;-86
2021/08/24 00:59:52;;;;;;;1.90;1.48;;;;;;;;;;5012344;28;20054;-86
2021/08/24 01:02:22;;;;;;;3.15;1.50;;;;;;;;;;5018519;23;20444;-94
2021/08/24 01:04:53;;;;;;;1.77;1.40;;;;;;;;;;4977699;28;20608;-93
2021/08/24 01:07:26;;;;;;;1.95;1.20;;;;;;;;;;4978064;28;20058;-94
2021/08/24 01:09:58;;;;;;;1.90;1.05;;;;;;;;;;4978445;28;20120;-93
2021/08/24 01:12:33;;;;;;;1.98;1.10;;;;;;;;;;4978556;28;20057;-94
2021/08/24 01:15:06;;;;;;;1.60;1.13;;;;;;;;;;4961457;28;20464;-93
2021/08/24 01:17:38;;;;;;;1.17;0.90;;;;;;;;;;4979432;28;20218;-93
2021/08/24 01:20:20;;;;;;;1.20;1.00;;;;;;;;;;4979327;28;20485;-94
2021/08/24 01:23:02;;;;;;;1.48;1.15;;;;;;;;;;4962475;28;20137;-94
2021/08/24 01:25:33;;;;;;;2.58;0.98;;;;;;;;;;4959593;28;20304;-94
2021/08/24 01:28:06;;;;;;;1.30;1.00;;;;;;;;;;4959125;28;20055;-94
2021/08/24 01:30:48;;;;;;;1.50;1.27;;;;;;;;;;4974283;28;20057;-94
2021/08/24 01:33:21;;;;;;;1.33;1.00;;;;;;;;;;4974530;28;20106;-94
2021/08/24 01:36:09;;;;;;;1.55;1.10;;;;;;;;;;4958547;28;20126;-93
2021/08/24 01:38:43;;;;;;;1.77;1.05;;;;;;;;;;4956561;28;20047;-94
2021/08/24 01:41:17;;;;;;;1.98;1.10;;;;;;;;;;4973050;28;20834;-94
2021/08/24 01:43:51;;;;;;;1.55;1.00;;;;;;;;;;4972854;28;20070;-93
2021/08/24 01:46:24;;;;;;;1.55;1.00;;;;;;;;;;4974100;28;20058;-94
2021/08/24 01:48:55;;;;;;;3.80;1.20;;;;;;;;;;4974321;28;20077;-94
2021/08/24 01:51:26;;;;;;;1.33;0.95;;;;;;;;;;4973891;28;20054;-94
2021/08/24 01:54:00;;;;;;;1.58;1.10;;;;;;;;;;4955461;28;20140;-93
2021/08/24 01:56:32;;;;;;;1.52;1.30;;;;;;;;;;4956227;28;20074;-94
2021/08/24 01:59:03;;;;;;;2.30;1.05;;;;;;;;;;4973683;28;20059;-93
2021/08/24 02:01:33;;;;;;;1.85;1.10;;;;;;;;;;4956486;28;20128;-94
2021/08/24 02:04:03;;;;;;;1.40;1.02;;;;;;;;;;4973254;28;20105;-94
2021/08/24 02:06:33;;;;;;;1.60;1.05;;;;;;;;;;4974399;28;20062;-93
2021/08/24 02:09:09;;;;;;;2.00;1.20;;;;;;;;;;4956120;28;20058;-94
2021/08/24 02:11:38;;;;;;;1.60;1.08;;;;;;;;;;4974560;28;20075;-94
2021/08/24 02:14:09;;;;;;;2.28;1.00;;;;;;;;;;4974123;28;20058;-94
2021/08/24 02:16:38;;;;;;;1.48;1.00;;;;;;;;;;4974463;28;20479;-94
2021/08/24 02:19:12;;;;;;;1.52;1.10;;;;;;;;;;4974564;28;20063;-93
2021/08/24 02:21:44;;;;;;;1.55;1.13;;;;;;;;;;4973334;28;20050;-94
2021/08/24 02:24:16;;;;;;;1.67;1.02;;;;;;;;;;4974671;28;20054;-94
2021/08/24 02:26:46;;;;;;;1.10;0.90;;;;;;;;;;4972879;28;20062;-94
2021/08/24 02:29:15;;;;;;;2.15;1.10;;;;;;;;;;4975090;28;20047;-94
2021/08/24 02:31:47;;;;;;;1.98;1.38;;;;;;;;;;4976038;28;20113;-94
2021/08/24 02:34:22;;;;;;;2.17;1.17;;;;;;;;;;4976525;28;20536;-93
2021/08/24 02:36:55;;;;;;;1.65;0.82;;;;;;;;;;4964568;28;20141;-94
2021/08/24 02:39:30;;;;;;;2.35;1.33;;;;;;;;;;4963718;28;20047;-94
2021/08/24 02:42:01;;;;;;;3.08;1.33;;;;;;;;;;4967801;28;20090;-93
2021/08/24 02:44:35;;;;;;;4.53;1.20;;;;;;;;;;4974104;28;20050;-94
2021/08/24 02:47:04;;;;;;;1.45;1.00;;;;;;;;;;4980407;28;20081;-94
2021/08/24 02:49:34;;;;;;;1.30;0.80;;;;;;;;;;4979432;28;20521;-94
2021/08/24 02:52:06;;;;;;;3.03;1.02;;;;;;;;;;4964707;28;20391;-94
2021/08/24 02:54:37;;;;;;;4.30;1.27;;;;;;;;;;4958307;28;20046;-94
2021/08/24 02:57:06;;;;;;;2.17;1.08;;;;;;;;;;4969568;28;20054;-93
2021/08/24 02:59:37;;;;;;;2.85;1.30;;;;;;;;;;4969516;28;20444;-94
2021/08/24 03:02:07;;;;;;;3.28;1.50;;;;;;;;;;4973958;28;20080;-93
2021/08/24 03:04:36;;;;;;;3.17;1.38;;;;;;;;;;4973513;28;20050;-93
2021/08/24 03:07:07;;;;;;;4.90;1.48;;;;;;;;;;4972981;28;20109;-93
2021/08/24 03:09:38;;;;;;;2.10;1.30;;;;;;;;;;4969546;28;20051;-94
2021/08/24 03:12:12;;;;;;;1.88;1.40;;;;;;;;;;4938834;28;20130;-94
2021/08/24 03:14:45;;;;;;;3.42;1.30;;;;;;;;;;4971363;28;20055;-93
2021/08/24 03:17:17;;;;;;;1.90;1.08;;;;;;;;;;4972239;28;20135;-93
2021/08/24 03:19:47;;;;;;;2.83;1.20;;;;;;;;;;4956012;28;20055;-93
2021/08/24 03:22:16;;;;;;;2.28;1.30;;;;;;;;;;4973104;28;20399;-93
2021/08/24 03:24:47;;;;;;;6.45;1.50;;;;;;;;;;4971918;28;20055;-93
2021/08/24 03:27:24;;;;;;;2.28;1.12;;;;;;;;;;1538918;28;10021769;-93
2021/08/24 03:29:57;;;;;;;3.20;1.52;;;;;;;;;;3598994;28;10001162;-93
2021/08/24 03:32:30;;;;;;;2.88;1.50;;;;;;;;;;4972107;28;20090;-93
2021/08/24 03:34:59;;;;;;;2.63;1.17;;;;;;;;;;4941814;29;20055;-93
2021/08/24 03:37:28;;;;;;;4.57;1.67;;;;;;;;;;4945250;28;20541;-93
2021/08/24 03:40:00;;;;;;;6.20;1.55;;;;;;;;;;4955293;28;20051;-93
2021/08/24 03:42:30;;;;;;;2.80;1.50;;;;;;;;;;4971049;28;20050;-93
2021/08/24 03:44:59;;;;;;;4.07;1.73;;;;;;;;;;4972045;28;20051;-93
2021/08/24 03:47:28;;;;;;;2.42;1.30;;;;;;;;;;4971944;28;20066;-93
2021/08/24 03:49:59;;;;;;;3.35;1.45;;;;;;;;;;4969272;28;20133;-93
2021/08/24 03:52:30;;;;;;;2.95;1.67;;;;;;;;;;4955123;28;20050;-93
2021/08/24 03:55:01;;;;;;;4.40;1.85;;;;;;;;;;4971233;28;20051;-93
2021/08/24 03:57:29;;;;;;;3.65;1.70;;;;;;;;;;4970981;28;20120;-93
2021/08/24 03:59:58;;;;;;;2.40;1.55;;;;;;;;;;4967430;28;20157;-94
2021/08/24 04:02:28;;;;;;;3.53;2.20;;;;;;;;;;4972701;28;20601;-93
2021/08/24 04:05:01;;;;;;;3.53;1.27;;;;;;;;;;4973595;28;20047;-93
2021/08/24 04:07:30;;;;;;;3.13;1.40;;;;;;;;;;4974529;28;20054;-93
2021/08/24 04:10:00;;;;;;;3.58;1.40;;;;;;;;;;4946850;28;20078;-93
2021/08/24 04:12:29;;;;;;;4.22;2.10;;;;;;;;;;4974325;28;20050;-93
2021/08/24 04:14:57;;;;;;;2.47;1.42;;;;;;;;;;4974502;28;20042;-93
2021/08/24 04:17:26;;;;;;;3.15;1.70;;;;;;;;;;4973545;28;20085;-93
2021/08/24 04:19:55;;;;;;;3.88;1.90;;;;;;;;;;4973726;28;20047;-93
2021/08/24 04:22:24;;;;;;;4.85;2.20;;;;;;;;;;4979360;28;20058;-93
2021/08/24 04:24:53;;;;;;;5.93;2.00;;;;;;;;;;4973350;28;20057;-94
2021/08/24 04:27:23;;;;;;;5.13;2.10;;;;;;;;;;4971792;28;20053;-93
2021/08/24 04:29:56;;;;;;;3.15;1.70;;;;;;;;;;4944643;28;20093;-93
2021/08/24 04:32:26;;;;;;;4.80;2.47;;;;;;;;;;4944644;28;20050;-93
2021/08/24 04:34:55;;;;;;;3.65;2.05;;;;;;;;;;4957918;28;20047;-93
2021/08/24 04:37:23;;;;;;;3.20;2.00;;;;;;;;;;4957443;28;20051;-93
2021/08/24 04:39:53;;;;;;;3.83;2.00;;;;;;;;;;4977364;28;20062;-94
2021/08/24 04:42:23;;;;;;;4.97;2.42;;;;;;;;;;4966803;28;20074;-94
2021/08/24 04:44:52;;;;;;;3.67;2.15;;;;;;;;;;4972956;28;20051;-92
2021/08/24 04:47:25;;;;;;;5.38;2.38;;;;;;;;;;4974176;28;20061;-93
2021/08/24 04:49:55;;;;;;;6.07;2.65;;;;;;;;;;4978810;28;20055;-94
2021/08/24 04:52:24;;;;;;;6.05;2.00;;;;;;;;;;4960144;28;20043;-93
2021/08/24 04:54:53;;;;;;;4.30;2.08;;;;;;;;;;4967392;28;20110;-93
2021/08/24 04:57:24;;;;;;;6.85;2.60;;;;;;;;;;4961442;29;20077;-93
2021/08/24 04:59:55;;;;;;;5.20;2.25;;;;;;;;;;4942255;29;20051;-93
2021/08/24 05:03:25;;;;;;;4.85;2.00;;;;;;;;;;4959855;28;20078;-93
2021/08/24 05:06:14;;;;;;;3.65;2.30;;;;;;;;;;4959190;29;20087;-93
2021/08/24 05:12:00;;;;;;;7.30;2.83;;;;;;;;;;4958133;28;20130;-93
2021/08/24 05:21:23;;;;;;;3.65;2.10;;;;;;;;;;4959213;29;20083;-93
2021/08/24 05:26:28;;;;;;;4.70;2.30;;;;;;;;;;4950636;29;20055;-70
2021/08/24 05:28:56;;;;;;;5.15;2.63;;;;;;;;;;4951412;29;20354;-70
2021/08/24 05:31:25;;;;;;;4.55;2.47;;;;;;;;;;4950267;29;20051;-70
2021/08/24 05:33:53;;;;;;;5.20;2.13;;;;;;;;;;4959081;28;20054;-70
2021/08/24 05:36:23;;;;;;;5.80;2.47;;;;;;;;;;4961531;28;20126;-70
2021/08/24 05:38:51;;;;;;;5.40;2.22;;;;;;;;;;4950726;29;20087;-70
2021/08/24 05:41:19;;;;;;;4.70;2.15;;;;;;;;;;4950084;29;20051;-70
2021/08/24 05:43:48;;;;;;;6.07;2.38;;;;;;;;;;4948091;29;20054;-70
2021/08/24 05:46:17;;;;;;;8.80;2.70;;;;;;;;;;4947332;28;20038;-70
2021/08/24 05:48:46;;;;;;;7.38;2.90;;;;;;;;;;4960658;28;20055;-70
2021/08/24 05:51:15;;;;;;;5.13;3.05;;;;;;;;;;4947593;29;20150;-69
2021/08/24 05:53:45;;;;;;;8.95;3.35;;;;;;;;;;4947199;28;20106;-70
2021/08/24 05:56:14;;;;;;;6.70;2.65;;;;;;;;;;4937052;28;20070;-69
2021/08/24 05:58:43;;;;;;;7.35;2.95;;;;;;;;;;4936682;28;20496;-71
2021/08/24 06:01:18;;;;;;;6.20;2.95;;;;;;;;;;4944614;29;20054;-70
2021/08/24 06:03:46;;;;;;;4.97;2.85;;;;;;;;;;4942959;28;20047;-70
2021/08/24 06:06:19;;;;;;;5.13;2.88;;;;;;;;;;4947012;28;20411;-70
2021/08/24 06:08:48;;;;;;;6.40;3.30;;;;;;;;;;4935949;29;20047;-70
2021/08/24 06:11:20;;;;;;;6.93;3.17;;;;;;;;;;4942155;29;20061;-70
2021/08/24 06:13:48;;;;;;;8.50;3.10;;;;;;;;;;4942170;29;20039;-70
2021/08/24 06:16:18;;;;;;;7.43;2.88;;;;;;;;;;4937873;29;20050;-70
2021/08/24 06:18:46;;;;;;;9.43;3.55;;;;;;;;;;4940729;28;20051;-69
2021/08/24 06:21:15;;;;;;;5.38;3.10;;;;;;;;;;4942931;29;20427;-69
2021/08/24 06:23:43;;;;;;;5.72;3.35;;;;;;;;;;4945072;28;20078;-70
2021/08/24 06:26:13;;;;;;;5.78;3.20;;;;;;;;;;4944054;28;20063;-70
2021/08/24 06:28:42;;;;;;;4.88;3.03;;;;;;;;;;4941397;29;20455;-70
2021/08/24 06:31:11;;;;;;;7.63;3.45;;;;;;;;;;4943365;29;20053;-70
2021/08/24 06:33:40;;;;;;;4.65;2.83;;;;;;;;;;4944246;29;20055;-71
2021/08/24 06:36:09;;;;;;;5.82;3.03;;;;;;;;;;4937632;29;20054;-69
2021/08/24 06:38:37;;;;;;;5.80;3.50;;;;;;;;;;4941024;29;20078;-70
2021/08/24 06:41:06;;;;;;;5.93;3.20;;;;;;;;;;4941196;28;20887;-70
2021/08/24 06:43:35;;;;;;;5.35;3.10;;;;;;;;;;4937770;29;20079;-71
2021/08/24 06:46:05;;;;;;;5.97;3.15;;;;;;;;;;4943150;28;20498;-70
2021/08/24 06:48:34;;;;;;;7.53;3.10;;;;;;;;;;4943214;29;20546;-69
2021/08/24 06:51:02;;;;;;;4.65;2.92;;;;;;;;;;4943152;28;20055;-71
2021/08/24 06:53:31;;;;;;;6.78;2.88;;;;;;;;;;4938411;28;20166;-70
2021/08/24 06:55:59;;;;;;;7.97;3.72;;;;;;;;;;4937357;28;20073;-70
2021/08/24 06:58:27;;;;;;;5.82;3.35;;;;;;;;;;4941236;28;20043;-70
2021/08/24 07:00:57;;;;;;;5.43;3.50;;;;;;;;;;4940238;28;20058;-70
2021/08/24 07:03:26;;;;;;;4.70;2.85;;;;;;;;;;4943180;28;20050;-70
2021/08/24 07:05:54;;;;;;;7.82;3.40;;;;;;;;;;4939806;29;20330;-70
2021/08/24 07:08:22;;;;;;;4.80;2.80;;;;;;;;;;4942273;28;20047;-70
2021/08/24 07:10:52;;;;;;;4.40;2.70;;;;;;;;;;4942053;29;20062;-70
2021/08/24 07:13:20;;;;;;;4.70;3.03;;;;;;;;;;4943329;28;20047;-70
2021/08/24 07:15:49;;;;;;;5.05;3.03;;;;;;;;;;4941246;29;20052;-70
2021/08/24 07:18:18;;;;;;;4.32;3.20;;;;;;;;;;4939232;28;20166;-70
2021/08/24 07:20:49;;;;;;;7.20;3.50;;;;;;;;;;4941631;29;20051;-70
2021/08/24 07:23:18;;;;;;;5.80;2.95;;;;;;;;;;4944420;28;20090;-70
2021/08/24 07:25:47;;;;;;;5.78;3.05;;;;;;;;;;4938872;28;20055;-70
2021/08/24 07:28:15;;;;;;;5.47;2.75;;;;;;;;;;4944890;28;20828;-70
2021/08/24 07:30:48;;;;;;;8.48;2.75;;;;;;;;;;4934991;29;20065;-70
2021/08/24 07:33:17;;;;;;;4.38;2.88;;;;;;;;;;4937181;29;20043;-70
2021/08/24 07:35:47;;;;;;;5.97;3.22;;;;;;;;;;4941407;28;20173;-70
2021/08/24 07:38:16;;;;;;;5.93;3.10;;;;;;;;;;4947977;29;20424;-70
2021/08/24 07:40:45;;;;;;;7.93;3.15;;;;;;;;;;4940321;28;20147;-70
2021/08/24 07:43:13;;;;;;;6.75;2.85;;;;;;;;;;4939800;28;20051;-71
2021/08/24 07:45:41;;;;;;;4.55;2.88;;;;;;;;;;4954896;28;20049;-70
2021/08/24 07:48:10;;;;;;;4.88;3.03;;;;;;;;;;4944349;28;20061;-70
2021/08/24 07:50:38;;;;;;;4.97;3.05;;;;;;;;;;4948940;29;20497;-70
2021/08/24 07:53:08;;;;;;;4.78;3.00;;;;;;;;;;4941542;28;20075;-70
2021/08/24 07:55:37;;;;;;;7.18;3.30;;;;;;;;;;4944780;28;20051;-70
2021/08/24 07:58:05;;;;;;;5.85;3.13;;;;;;;;;;4953555;28;20055;-70
2021/08/24 08:00:34;;;;;;;4.78;3.20;;;;;;;;;;4948631;28;20051;-70
2021/08/24 08:03:08;;;;;;;4.78;2.75;;;;;;;;;;4941110;29;20581;-70
2021/08/24 08:05:37;;;;;;;4.40;3.20;;;;;;;;;;4946185;28;20055;-70
2021/08/24 08:08:08;;;;;;;6.68;3.50;;;;;;;;;;4946162;29;20161;-70
2021/08/24 08:10:38;;;;;;;6.25;3.65;;;;;;;;;;4948190;29;20122;-70
2021/08/24 08:13:12;;;;;;;4.97;3.20;;;;;;;;;;4946329;29;20043;-69
2021/08/24 08:15:41;;;;;;;4.60;3.10;;;;;;;;;;4948150;29;20432;-70
2021/08/24 08:18:10;;;;;;;7.88;3.60;;;;;;;;;;4948345;29;20131;-70
2021/08/24 08:20:38;;;;;;;5.75;3.47;;;;;;;;;;4944729;29;20114;-69
2021/08/24 08:23:08;;;;;;;6.25;3.92;;;;;;;;;;4947471;29;20767;-69
2021/08/24 08:25:51;;;;;;;6.65;4.15;;;;;;;;;;4946051;28;20077;-70
2021/08/24 08:28:19;;;;;;;6.35;4.10;;;;;;;;;;4947754;29;20130;-70
2021/08/24 08:30:53;;;;;;;6.85;3.97;;;;;;;;;;4946754;29;20082;-70
2021/08/24 08:33:22;;;;;;;6.35;4.22;;;;;;;;;;4944787;29;20403;-70
2021/08/24 08:35:52;;;;;;;6.93;3.90;;;;;;;;;;4946286;28;20159;-70
2021/08/24 08:38:23;;;;;;;7.40;4.05;;;;;;;;;;4947002;29;20051;-70
2021/08/24 08:40:52;;;;;;;8.23;4.53;;;;;;;;;;4945274;29;20388;-70
2021/08/24 08:43:33;;;;;;;7.35;4.07;;;;;;;;;;4941344;29;20043;-71
2021/08/24 08:46:04;;;;;;;8.35;4.80;;;;;;;;;;4946541;28;20047;-70
2021/08/24 08:48:37;;;;;;;7.75;4.60;;;;;;;;;;4947448;29;20461;-70
2021/08/24 08:51:16;;;;;;;6.85;4.00;;;;;;;;;;4947134;29;20146;-70
2021/08/24 08:53:51;;;;;;;6.65;4.25;;;;;;;;;;4945681;29;20487;-71
2021/08/24 08:56:22;;;;;;;8.02;4.35;;;;;;;;;;4944735;28;20134;-70
2021/08/24 08:58:53;;;;;;;8.93;4.55;;;;;;;;;;4940324;28;20167;-70
2021/08/24 09:01:31;;;;;;;6.43;4.10;;;;;;;;;;4946294;29;20062;-71
2021/08/24 09:04:06;;;;;;;6.60;4.50;;;;;;;;;;4945993;28;20415;-70
2021/08/24 09:06:40;;;;;;;6.75;4.07;;;;;;;;;;4944892;29;20083;-70
2021/08/24 09:09:10;;;;;;;7.15;3.85;;;;;;;;;;4945292;29;20138;-70
2021/08/24 09:11:47;;;;;;;11.93;4.72;;;;;;;;;;4946763;28;20094;-70
2021/08/24 09:14:17;;;;;;;7.40;4.07;;;;;;;;;;4945028;29;20069;-70
2021/08/24 09:16:48;;;;;;;5.68;3.88;;;;;;;;;;4946629;29;20057;-69
2021/08/24 09:19:19;;;;;;;5.25;3.38;;;;;;;;;;4940590;29;20047;-70
2021/08/24 09:21:50;;;;;;;6.35;3.78;;;;;;;;;;4946966;28;20093;-70
2021/08/24 09:24:22;;;;;;;5.97;3.40;;;;;;;;;;4908237;28;1073844;-71
2021/08/24 09:26:53;;;;;;;6.85;3.53;;;;;;;;;;4944310;29;20134;-70
2021/08/24 09:29:23;;;;;;;9.45;3.65;;;;;;;;;;4942812;29;20678;-71
2021/08/24 09:31:52;;;;;;;6.43;3.35;;;;;;;;;;4940940;29;20082;-71
2021/08/24 09:34:23;;;;;;;4.80;3.28;;;;;;;;;;4946784;28;20055;-69
2021/08/24 09:36:52;;;;;;;4.45;3.15;;;;;;;;;;4947495;29;20086;-70
2021/08/24 09:39:35;;;;;;;5.47;3.63;;;;;;;;;;4948969;29;20047;-71
2021/08/24 09:42:08;;;;;;;5.32;2.80;;;;;;;;;;4946612;29;20106;-71
2021/08/24 09:44:37;;;;;;;6.63;3.60;;;;;;;;;;4949347;28;20054;-70
2021/08/24 09:47:08;;;;;;;5.18;3.50;;;;;;;;;;4952210;29;20590;-71
2021/08/24 09:49:37;;;;;;;3.85;2.97;;;;;;;;;;4947147;29;20590;-72
2021/08/24 09:52:13;;;;;;;5.07;3.10;;;;;;;;;;4957203;28;20148;-70
2021/08/24 09:54:43;;;;;;;4.22;2.60;;;;;;;;;;4956855;28;20473;-70
2021/08/24 09:57:21;;;;;;;5.60;3.03;;;;;;;;;;4948312;28;20518;-70
2021/08/24 10:00:08;;;;;;;5.88;2.90;;;;;;;;;;4944034;29;20130;-70
2021/08/24 10:02:44;;;;;;;4.72;2.85;;;;;;;;;;4947116;28;20054;-69
2021/08/24 10:05:15;;;;;;;5.03;2.90;;;;;;;;;;4948411;28;20039;-71
2021/08/24 10:07:48;;;;;;;3.65;2.55;;;;;;;;;;4949024;29;20078;-70
2021/08/24 10:10:23;;;;;;;3.10;2.50;;;;;;;;;;4950057;29;20134;-71
2021/08/24 10:13:02;;;;;;;6.43;2.97;;;;;;;;;;4940933;29;20051;-71
2021/08/24 10:15:31;;;;;;;3.58;2.38;;;;;;;;;;4949029;28;20071;-71
2021/08/24 10:18:01;;;;;;;4.00;2.83;;;;;;;;;;4939952;29;20845;-71
2021/08/24 10:20:32;;;;;;;4.97;2.50;;;;;;;;;;4949623;29;20319;-70
2021/08/24 10:23:01;;;;;;;4.38;2.67;;;;;;;;;;4945494;29;20059;-71
2021/08/24 10:25:35;;;;;;;3.92;2.75;;;;;;;;;;4947511;28;20138;-71
2021/08/24 10:28:07;;;;;;;3.88;2.63;;;;;;;;;;4940343;29;20557;-72
2021/08/24 10:30:44;;;;;;;3.92;2.47;;;;;;;;;;4944026;29;20166;-70
2021/08/24 10:33:23;;;;;;;3.50;2.17;;;;;;;;;;4948683;29;20486;-71
2021/08/24 10:35:57;;;;;;;5.47;3.03;;;;;;;;;;4941813;29;20082;-70
2021/08/24 10:38:42;;;;;;;6.18;3.67;;;;;;;;;;4949159;28;20329;-71
2021/08/24 10:41:29;;;;;;;3.50;2.63;;;;;;;;;;4944356;29;20051;-70
2021/08/24 10:44:00;;;;;;;4.53;2.80;;;;;;;;;;4931064;29;20643;-71
2021/08/24 10:46:28;;;;;;;4.75;2.67;;;;;;;;;;4945670;29;20071;-71
2021/08/24 10:48:58;;;;;;;5.78;2.70;;;;;;;;;;4948377;28;20044;-71
2021/08/24 10:51:44;;;;;;;4.65;2.80;;;;;;;;;;4947244;29;20446;-70
2021/08/24 10:54:23;;;;;;;4.82;2.90;;;;;;;;;;4947675;28;20126;-70
2021/08/24 10:57:04;;;;;;;4.72;2.83;;;;;;;;;;4947641;28;20526;-70
2021/08/24 10:59:38;;;;;;;3.63;2.60;;;;;;;;;;4946608;29;20134;-69
2021/08/24 11:02:14;;;;;;;4.70;2.53;;;;;;;;;;4946863;29;20542;-71
2021/08/24 11:04:58;;;;;;;3.47;2.38;;;;;;;;;;4947657;28;20065;-71
2021/08/24 11:07:40;;;;;;;4.30;2.25;;;;;;;;;;4945236;29;20074;-71
2021/08/24 11:10:27;;;;;;;3.53;2.50;;;;;;;;;;4951015;28;20047;-71
2021/08/24 11:13:00;;;;;;;3.55;2.33;;;;;;;;;;4951255;29;20313;-70
2021/08/24 11:15:37;;;;;;;4.18;2.55;;;;;;;;;;4947012;29;20497;-70
2021/08/24 11:18:20;;;;;;;6.20;2.45;;;;;;;;;;4945155;29;20043;-71
2021/08/24 11:20:51;;;;;;;3.75;2.33;;;;;;;;;;4953337;29;20538;-70
2021/08/24 11:23:36;;;;;;;3.17;2.33;;;;;;;;;;4954243;28;20046;-69
2021/08/24 11:26:10;;;;;;;3.63;2.38;;;;;;;;;;4937013;29;20059;-68
2021/08/24 11:28:43;;;;;;;4.22;3.05;;;;;;;;;;4945361;29;20078;-68
2021/08/24 11:31:15;;;;;;;4.53;2.67;;;;;;;;;;4953040;29;20126;-67
2021/08/24 11:33:46;;;;;;;5.60;2.40;;;;;;;;;;4952319;28;20142;-68
2021/08/24 11:36:16;;;;;;;3.75;2.08;;;;;;;;;;4954428;29;20071;-69
2021/08/24 11:38:46;;;;;;;5.57;2.55;;;;;;;;;;4952461;28;20138;-68
2021/08/24 11:41:17;;;;;;;3.95;2.53;;;;;;;;;;4951469;29;20380;-69
2021/08/24 11:43:47;;;;;;;3.25;2.53;;;;;;;;;;4953592;29;20055;-69
2021/08/24 11:46:20;;;;;;;5.22;2.60;;;;;;;;;;4950636;29;20158;-68
2021/08/24 11:48:49;;;;;;;3.08;2.20;;;;;;;;;;4953352;29;20055;-68
2021/08/24 11:51:22;;;;;;;3.97;1.85;;;;;;;;;;4948159;28;20047;-75
2021/08/24 11:53:52;;;;;;;4.72;1.95;;;;;;;;;;4951567;29;20146;-74
2021/08/24 11:56:26;;;;;;;3.42;1.80;;;;;;;;;;4947860;28;20051;-75
2021/08/24 11:58:56;;;;;;;3.33;1.80;;;;;;;;;;4947454;28;20582;-74
2021/08/24 12:01:27;;;;;;;3.05;1.90;;;;;;;;;;4953552;29;20044;-74
2021/08/24 12:03:57;;;;;;;2.63;1.83;;;;;;;;;;4953158;29;20289;-75
2021/08/24 12:06:27;;;;;;;3.38;1.67;;;;;;;;;;4954413;29;20048;-74
2021/08/24 12:08:57;;;;;;;2.47;1.75;;;;;;;;;;4954607;29;20051;-75
2021/08/24 12:11:40;;;;;;;3.70;1.85;;;;;;;;;;4954482;29;20054;-75
2021/08/24 12:14:30;;;;;;;2.95;1.77;;;;;;;;;;4953704;29;20055;-74
2021/08/24 12:17:03;;;;;;;2.10;1.60;;;;;;;;;;4954526;29;20117;-75
2021/08/24 12:19:32;;;;;;;2.88;1.70;;;;;;;;;;4954379;29;20150;-75
2021/08/24 12:22:04;;;;;;;2.45;1.70;;;;;;;;;;4953203;28;20043;-75
2021/08/24 12:24:43;;;;;;;3.72;1.95;;;;;;;;;;4952863;29;20078;-75
2021/08/24 12:27:29;;;;;;;2.70;1.73;;;;;;;;;;4954408;29;20078;-75
2021/08/24 12:30:07;;;;;;;3.10;1.77;;;;;;;;;;4954508;29;20098;-75
2021/08/24 12:32:55;;;;;;;3.80;2.00;;;;;;;;;;4954412;29;20065;-75
2021/08/24 12:35:32;;;;;;;2.85;2.05;;;;;;;;;;4953210;29;20195;-75
2021/08/24 12:38:01;;;;;;;3.90;2.33;;;;;;;;;;4953659;29;20059;-75
2021/08/24 12:40:53;;;;;;;2.67;1.80;;;;;;;;;;4954046;29;20085;-75
2021/08/24 12:43:40;;;;;;;2.22;1.67;;;;;;;;;;4953838;28;20048;-75
2021/08/24 12:46:27;;;;;;;2.90;2.00;;;;;;;;;;4951579;29;20134;-75
2021/08/24 12:49:14;;;;;;;3.47;1.90;;;;;;;;;;4953517;29;20078;-76
2021/08/24 12:51:46;;;;;;;3.15;2.00;;;;;;;;;;4953817;29;20514;-75
2021/08/24 12:54:15;;;;;;;2.60;1.65;;;;;;;;;;4952608;28;20488;-75
2021/08/24 12:56:45;;;;;;;2.33;1.80;;;;;;;;;;4945874;29;20488;-75
2021/08/24 12:59:29;;;;;;;3.15;1.48;;;;;;;;;;4934867;29;20158;-75
2021/08/24 13:02:16;;;;;;;2.17;1.50;;;;;;;;;;4951849;29;20059;-75
2021/08/24 13:04:47;;;;;;;2.15;1.75;;;;;;;;;;4952674;29;20141;-75
2021/08/24 13:07:19;;;;;;;2.88;1.55;;;;;;;;;;4953848;29;20134;-75
2021/08/24 13:09:49;;;;;;;2.45;1.70;;;;;;;;;;4953851;29;20441;-75
2021/08/24 13:12:21;;;;;;;2.60;1.63;;;;;;;;;;4953306;29;20055;-75
2021/08/24 13:14:52;;;;;;;1.90;1.42;;;;;;;;;;4953250;29;20085;-75
2021/08/24 13:17:23;;;;;;;1.80;1.38;;;;;;;;;;4953412;29;20146;-75
2021/08/24 13:19:52;;;;;;;3.60;1.42;;;;;;;;;;4953916;29;20098;-75
2021/08/24 13:22:24;;;;;;;2.17;1.60;;;;;;;;;;4953410;29;20054;-74
2021/08/24 13:24:53;;;;;;;2.42;1.38;;;;;;;;;;4952516;29;20051;-74
2021/08/24 13:27:26;;;;;;;1.25;1.10;;;;;;;;;;4952627;29;20043;-74
2021/08/24 13:29:55;;;;;;;2.35;1.52;;;;;;;;;;4952995;29;20051;-73
2021/08/24 13:32:28;;;;;;;1.73;1.25;;;;;;;;;;4952117;28;20059;-75
2021/08/24 13:34:58;;;;;;;1.27;0.93;;;;;;;;;;4952701;29;20051;-74
2021/08/24 13:37:36;;;;;;;1.45;1.10;;;;;;;;;;4953423;29;20047;-74
2021/08/24 13:40:06;;;;;;;2.13;1.17;;;;;;;;;;4952584;29;20491;-74
2021/08/24 13:42:36;;;;;;;1.50;1.23;;;;;;;;;;4953189;29;20051;-74
2021/08/24 13:45:05;;;;;;;2.55;1.30;;;;;;;;;;4952752;28;20407;-74
2021/08/24 13:47:34;;;;;;;1.90;1.33;;;;;;;;;;4953023;29;20051;-75
2021/08/24 13:50:02;;;;;;;1.55;1.15;;;;;;;;;;4952993;29;20102;-74
2021/08/24 13:52:36;;;;;;;2.30;1.52;;;;;;;;;;4953535;29;20474;-74
2021/08/24 13:55:06;;;;;;;2.50;1.33;;;;;;;;;;4953731;29;20130;-74
2021/08/24 13:57:35;;;;;;;3.17;1.58;;;;;;;;;;4941993;28;20051;-75
2021/08/24 14:00:06;;;;;;;2.20;1.42;;;;;;;;;;4936106;29;20134;-74
2021/08/24 14:02:36;;;;;;;1.88;1.40;;;;;;;;;;4936357;29;20051;-75
2021/08/24 14:05:06;;;;;;;2.63;1.30;;;;;;;;;;4944630;28;20043;-75
2021/08/24 14:07:37;;;;;;;2.50;1.52;;;;;;;;;;4971319;28;20050;-75
2021/08/24 14:10:12;;;;;;;2.15;1.40;;;;;;;;;;4953246;28;20138;-76
2021/08/24 14:12:49;;;;;;;2.47;1.38;;;;;;;;;;4952175;29;20142;-74
2021/08/24 14:15:23;;;;;;;2.75;1.42;;;;;;;;;;4951285;29;20442;-74
2021/08/24 14:17:53;;;;;;;1.83;1.50;;;;;;;;;;4952333;29;20067;-75
2021/08/24 14:20:25;;;;;;;1.80;1.50;;;;;;;;;;4952159;29;20102;-74
2021/08/24 14:22:57;;;;;;;3.25;1.95;;;;;;;;;;4951859;29;20043;-75
2021/08/24 14:25:27;;;;;;;2.78;1.80;;;;;;;;;;4951317;29;20090;-75
2021/08/24 14:27:56;;;;;;;3.72;2.22;;;;;;;;;;4952197;29;20065;-76
2021/08/24 14:30:24;;;;;;;3.08;1.52;;;;;;;;;;4952352;29;20134;-74
2021/08/24 14:32:53;;;;;;;2.70;1.83;;;;;;;;;;4951971;29;20508;-76
2021/08/24 14:35:41;;;;;;;2.50;1.77;;;;;;;;;;4951452;29;20059;-75
2021/08/24 14:38:27;;;;;;;2.92;1.75;;;;;;;;;;4951747;29;20480;-75
2021/08/24 14:40:55;;;;;;;5.00;1.95;;;;;;;;;;4951720;29;20051;-76
2021/08/24 14:43:24;;;;;;;3.10;2.08;;;;;;;;;;4951467;29;20087;-76
2021/08/24 14:45:53;;;;;;;3.97;2.50;;;;;;;;;;4951684;29;20575;-76
2021/08/24 14:48:24;;;;;;;4.25;2.40;;;;;;;;;;4951720;28;20057;-76
2021/08/24 14:50:55;;;;;;;3.72;2.33;;;;;;;;;;4952232;29;20058;-76
2021/08/24 14:53:27;;;;;;;3.40;2.00;;;;;;;;;;4951313;29;20099;-77
2021/08/24 14:56:06;;;;;;;2.83;2.05;;;;;;;;;;4951730;28;20368;-76
2021/08/24 14:58:34;;;;;;;4.63;2.67;;;;;;;;;;4951945;29;20134;-76
2021/08/24 15:01:10;;;;;;;5.53;2.60;;;;;;;;;;4951651;29;20412;-76
2021/08/24 15:03:52;;;;;;;3.60;2.65;;;;;;;;;;4951261;29;20051;-76
2021/08/24 15:06:33;;;;;;;3.78;2.47;;;;;;;;;;4951655;29;20113;-76
2021/08/24 15:09:16;;;;;;;3.88;2.63;;;;;;;;;;4952124;29;20111;-76
2021/08/24 15:11:45;;;;;;;5.20;2.70;;;;;;;;;;4951411;29;20103;-76
2021/08/24 15:14:18;;;;;;;5.35;2.85;;;;;;;;;;4951146;29;20078;-76
2021/08/24 15:16:46;;;;;;;4.57;3.05;;;;;;;;;;4951450;29;20055;-78
2021/08/24 15:19:25;;;;;;;3.50;2.60;;;;;;;;;;4951622;29;20586;-76
2021/08/24 15:21:53;;;;;;;3.67;2.58;;;;;;;;;;4951772;29;20052;-76
2021/08/24 15:24:23;;;;;;;3.30;2.50;;;;;;;;;;4950447;29;20110;-76